Terminal Aerodrome Forecast
Issued by NWS Jackson, MS

Home | Current Version | Previous Version | Text Only | Print | Product List | Glossary On
Versions: 1 2 3 4 5 6 7 8 9 10 11 12 13 14 15 16 17
582
FTUS44 KJAN 281132
TAFJAN
TAF
KJAN 281132Z 2812/2912 16010KT 5SM BR OVC004
     FM281400 17015G24KT P6SM BKN015
     FM281700 17017G25KT P6SM BKN025
     FM282000 17018G28KT P6SM SCT035
     FM290900 15014G20KT P6SM OVC015=

USA.gov is the U.S. government's official web portal to all federal, state and local government web resources and services.